createdAt,value
2022-11-21T00:02:04.246Z,2.05
2022-11-21T00:04:31.355Z,2.28
2022-11-21T00:06:58.721Z,2.58
2022-11-21T00:09:25.941Z,2.75
2022-11-21T00:11:53.053Z,2.72
2022-11-21T00:14:20.106Z,2.35
2022-11-21T00:16:47.465Z,2.20
2022-11-21T00:19:14.555Z,2.00
2022-11-21T00:21:41.646Z,3.40
2022-11-21T00:24:08.728Z,2.72
2022-11-21T00:26:35.840Z,2.13
2022-11-21T00:29:02.905Z,2.50
2022-11-21T00:31:31.360Z,2.42
2022-11-21T00:33:58.442Z,2.55
2022-11-21T00:36:25.501Z,2.95
2022-11-21T00:38:52.574Z,2.33
2022-11-21T00:41:19.648Z,2.58
2022-11-21T00:43:46.761Z,2.05
2022-11-21T00:46:13.881Z,2.30
2022-11-21T00:48:40.969Z,2.42
2022-11-21T00:51:08.081Z,2.42
2022-11-21T00:53:35.208Z,2.33
2022-11-21T00:56:02.276Z,2.58
2022-11-21T00:58:29.353Z,2.42
2022-11-21T01:00:56.425Z,2.25
2022-11-21T01:03:23.497Z,2.13
2022-11-21T01:05:50.563Z,1.95
2022-11-21T01:08:17.644Z,1.65
2022-11-21T01:10:44.714Z,2.92
2022-11-21T01:13:11.802Z,1.77
2022-11-21T01:15:38.897Z,2.38
2022-11-21T01:18:05.957Z,2.28
2022-11-21T01:20:33.032Z,2.30
2022-11-21T01:23:00.091Z,2.33
2022-11-21T01:25:27.165Z,2.00
2022-11-21T01:27:54.247Z,2.15
2022-11-21T01:30:21.337Z,1.80
2022-11-21T01:32:48.409Z,1.83
2022-11-21T01:35:15.574Z,1.98
2022-11-21T01:37:42.645Z,1.77
2022-11-21T01:40:09.722Z,1.55
2022-11-21T01:42:36.790Z,2.28
2022-11-21T01:45:06.135Z,2.25
2022-11-21T01:47:33.213Z,1.90
2022-11-21T01:50:00.293Z,2.72
2022-11-21T01:52:27.378Z,1.50
2022-11-21T01:54:54.466Z,1.92
2022-11-21T01:57:21.590Z,1.75
2022-11-21T01:59:48.675Z,2.53
2022-11-21T02:02:15.742Z,1.42
2022-11-21T02:04:42.824Z,1.95
2022-11-21T02:07:10.052Z,2.45
2022-11-21T02:09:37.160Z,2.35
2022-11-21T02:12:04.219Z,2.47
2022-11-21T02:14:31.302Z,2.42
2022-11-21T02:16:58.375Z,1.60
2022-11-21T02:19:25.469Z,2.20
2022-11-21T02:21:52.541Z,2.00
2022-11-21T02:24:19.602Z,1.55
2022-11-21T02:26:46.754Z,1.63
2022-11-21T02:29:13.816Z,1.58
2022-11-21T02:31:40.872Z,1.67
2022-11-21T02:34:07.939Z,2.45
2022-11-21T02:36:35.018Z,1.77
2022-11-21T02:39:02.109Z,1.88
2022-11-21T02:41:29.196Z,1.67
2022-11-21T02:43:56.254Z,1.45
2022-11-21T02:46:23.353Z,1.77
2022-11-21T02:48:50.412Z,1.70
2022-11-21T02:51:17.537Z,1.90
2022-11-21T02:53:46.264Z,1.38
2022-11-21T02:56:13.326Z,1.45
2022-11-21T02:58:40.549Z,1.60
2022-11-21T03:01:07.730Z,2.20
2022-11-21T03:03:34.853Z,1.20
2022-11-21T03:06:01.934Z,1.75
2022-11-21T03:08:29.027Z,1.80
2022-11-21T03:10:56.156Z,1.83
2022-11-21T03:13:23.246Z,2.42
2022-11-21T03:15:50.348Z,1.95
2022-11-21T03:18:17.469Z,1.48
2022-11-21T03:20:44.544Z,2.10
2022-11-21T03:23:11.602Z,2.20
2022-11-21T03:25:38.661Z,1.38
2022-11-21T03:28:05.716Z,1.60
2022-11-21T03:30:33.020Z,1.95
2022-11-21T03:33:00.113Z,1.17
2022-11-21T03:35:27.181Z,2.65
2022-11-21T03:37:54.262Z,1.50
2022-11-21T03:40:21.378Z,2.25
2022-11-21T03:42:48.491Z,1.67
2022-11-21T03:45:15.630Z,1.33
2022-11-21T03:47:42.729Z,1.17
2022-11-21T03:50:10.773Z,1.70
2022-11-21T03:52:37.885Z,1.08
2022-11-21T03:55:04.944Z,1.90
2022-11-21T03:57:31.994Z,1.38
2022-11-21T03:59:59.078Z,1.40
2022-11-21T04:02:26.151Z,1.27
2022-11-21T04:04:53.233Z,1.38
2022-11-21T04:07:20.332Z,1.13
2022-11-21T04:09:47.465Z,2.25
2022-11-21T04:12:14.576Z,1.20
2022-11-21T04:14:41.643Z,1.63
2022-11-21T04:17:08.738Z,1.10
2022-11-21T04:19:35.822Z,1.23
2022-11-21T04:22:02.933Z,1.10
2022-11-21T04:24:30.400Z,1.73
2022-11-21T04:26:57.648Z,2.92
2022-11-21T04:29:24.903Z,1.95
2022-11-21T04:31:51.996Z,1.23
2022-11-21T04:34:19.114Z,1.48
2022-11-21T04:36:46.287Z,1.58
2022-11-21T04:39:13.475Z,1.67
2022-11-21T04:41:40.568Z,1.58
2022-11-21T04:44:07.660Z,1.13
2022-11-21T04:46:34.754Z,1.00
2022-11-21T04:49:01.941Z,1.30
2022-11-21T04:51:29.024Z,2.03
2022-11-21T04:53:56.105Z,2.05
2022-11-21T04:56:23.176Z,1.40
2022-11-21T04:58:50.240Z,1.05
2022-11-21T05:01:17.334Z,1.30
2022-11-21T05:03:44.477Z,1.23
2022-11-21T05:06:11.550Z,1.73
2022-11-21T05:08:38.639Z,1.38
2022-11-21T05:11:24.538Z,1.38
2022-11-21T05:13:51.622Z,1.58
2022-11-21T05:16:18.676Z,1.30
2022-11-21T05:18:45.768Z,1.63
2022-11-21T05:21:12.876Z,1.80
2022-11-21T05:23:39.926Z,1.25
2022-11-21T05:26:07.004Z,1.20
2022-11-21T05:28:34.072Z,2.38
2022-11-21T05:31:01.135Z,1.50
2022-11-21T05:33:28.212Z,1.10
2022-11-21T05:35:55.269Z,2.33
2022-11-21T05:38:22.341Z,1.05
2022-11-21T05:40:49.407Z,1.13
2022-11-21T05:43:35.330Z,1.50
2022-11-21T05:46:02.404Z,1.98
2022-11-21T05:48:29.477Z,1.08
2022-11-21T05:50:56.567Z,1.00
2022-11-21T05:53:23.627Z,1.38
2022-11-21T05:55:50.699Z,1.65
2022-11-21T05:58:17.780Z,1.20
2022-11-21T06:00:44.833Z,1.65
2022-11-21T06:03:27.372Z,0.85
2022-11-21T06:05:54.548Z,0.90
2022-11-21T06:08:21.850Z,1.15
2022-11-21T06:10:49.023Z,1.33
2022-11-21T06:13:22.251Z,0.95
2022-11-21T06:15:49.662Z,1.85
2022-11-21T06:18:16.910Z,2.45
2022-11-21T06:20:43.984Z,1.60
2022-11-21T06:23:11.055Z,3.30
2022-11-21T06:25:38.118Z,1.10
2022-11-21T06:28:05.184Z,1.20
2022-11-21T06:30:32.258Z,1.95
2022-11-21T06:32:59.405Z,1.52
2022-11-21T06:35:26.533Z,1.48
2022-11-21T06:37:53.938Z,1.52
2022-11-21T06:40:21.041Z,1.88
2022-11-21T06:42:48.104Z,1.60
2022-11-21T06:45:15.184Z,1.85
2022-11-21T06:47:42.375Z,2.67
2022-11-21T06:50:09.451Z,2.85
2022-11-21T06:52:36.564Z,1.30
2022-11-21T06:55:03.707Z,1.73
2022-11-21T06:57:32.763Z,0.80
2022-11-21T06:59:59.893Z,1.27
2022-11-21T07:02:27.605Z,1.55
2022-11-21T07:04:54.931Z,1.27
2022-11-21T07:07:22.224Z,0.80
2022-11-21T07:09:49.671Z,1.00
2022-11-21T07:12:46.282Z,1.02
2022-11-21T07:15:13.489Z,1.55
2022-11-21T07:17:40.558Z,1.13
2022-11-21T07:20:07.616Z,1.13
2022-11-21T07:22:34.709Z,1.35
2022-11-21T07:25:01.774Z,1.25
2022-11-21T07:27:29.191Z,1.60
2022-11-21T07:29:58.520Z,1.35
2022-11-21T07:32:25.670Z,0.70
2022-11-21T07:34:52.724Z,0.70
2022-11-21T07:37:19.838Z,1.38
2022-11-21T07:39:46.921Z,1.63
2022-11-21T07:42:14.111Z,0.95
2022-11-21T07:44:41.195Z,0.90
2022-11-21T07:47:08.279Z,0.85
2022-11-21T07:49:35.421Z,1.30
2022-11-21T07:52:02.570Z,0.70
2022-11-21T07:54:29.627Z,1.25
2022-11-21T07:56:56.797Z,0.82
2022-11-21T07:59:23.981Z,1.00
2022-11-21T08:01:51.085Z,0.70
2022-11-21T08:04:18.186Z,1.48
2022-11-21T08:06:45.279Z,0.93
2022-11-21T08:09:12.347Z,1.05
2022-11-21T08:11:39.419Z,0.93
2022-11-21T08:14:06.501Z,2.00
2022-11-21T08:16:33.599Z,1.00
2022-11-21T08:19:00.744Z,0.90
2022-11-21T08:21:27.894Z,0.70
2022-11-21T08:23:55.146Z,0.80
2022-11-21T08:26:22.217Z,1.02
2022-11-21T08:28:49.372Z,0.73
2022-11-21T08:31:16.507Z,0.90
2022-11-21T08:33:43.605Z,0.80
2022-11-21T08:36:10.695Z,1.65
2022-11-21T08:38:37.768Z,1.35
2022-11-21T08:41:23.449Z,1.05
2022-11-21T08:43:50.510Z,1.00
2022-11-21T08:46:18.193Z,1.13
2022-11-21T08:48:45.258Z,1.25
2022-11-21T08:51:12.331Z,0.70
2022-11-21T08:53:39.390Z,0.75
2022-11-21T08:56:06.492Z,1.27
2022-11-21T08:58:33.654Z,0.98
2022-11-21T09:01:00.767Z,0.88
2022-11-21T09:03:31.021Z,0.63
2022-11-21T09:05:58.543Z,0.90
2022-11-21T09:08:25.673Z,1.85
2022-11-21T09:10:52.834Z,1.30
2022-11-21T09:13:19.973Z,0.60
2022-11-21T09:16:05.861Z,1.50
2022-11-21T09:18:32.943Z,3.03
2022-11-21T09:21:00.049Z,1.77
2022-11-21T09:23:27.136Z,0.65
2022-11-21T09:25:54.395Z,0.70
2022-11-21T09:28:21.528Z,1.05
2022-11-21T09:30:48.778Z,1.17
2022-11-21T09:33:17.037Z,1.67
2022-11-21T09:35:44.189Z,0.98
2022-11-21T09:38:11.269Z,2.33
2022-11-21T09:40:38.341Z,1.33
2022-11-21T09:43:05.437Z,0.93
2022-11-21T09:45:34.516Z,0.98
2022-11-21T09:48:01.618Z,0.85
2022-11-21T09:50:28.737Z,1.08
2022-11-21T09:52:55.803Z,1.83
2022-11-21T09:55:22.870Z,0.60
2022-11-21T09:57:50.034Z,1.75
2022-11-21T10:00:17.182Z,0.60
2022-11-21T10:02:44.279Z,1.05
2022-11-21T10:05:11.444Z,0.80
2022-11-21T10:07:38.603Z,0.80
2022-11-21T10:10:05.778Z,0.80
2022-11-21T10:12:39.691Z,1.75
2022-11-21T10:15:07.573Z,1.65
2022-11-21T10:17:34.645Z,0.95
2022-11-21T10:20:01.698Z,0.85
2022-11-21T10:22:28.858Z,1.30
2022-11-21T10:24:56.413Z,0.85
2022-11-21T10:27:23.553Z,1.85
2022-11-21T10:29:53.129Z,0.85
2022-11-21T10:32:20.234Z,1.50
2022-11-21T10:34:47.302Z,1.85
2022-11-21T10:37:14.442Z,1.60
2022-11-21T10:39:41.522Z,1.15
2022-11-21T10:42:08.582Z,0.82
2022-11-21T10:44:54.572Z,0.70
2022-11-21T10:47:27.767Z,0.60
2022-11-21T10:49:55.458Z,1.90
2022-11-21T10:52:22.548Z,1.30
2022-11-21T10:54:49.618Z,0.85
2022-11-21T10:57:16.697Z,0.63
2022-11-21T10:59:43.753Z,0.95
2022-11-21T11:02:10.817Z,1.08
2022-11-21T11:04:47.398Z,1.23
2022-11-21T11:07:17.901Z,1.05
2022-11-21T11:09:47.551Z,0.60
2022-11-21T11:12:14.644Z,1.42
2022-11-21T11:14:41.722Z,0.95
2022-11-21T11:17:09.026Z,0.70
2022-11-21T11:19:40.290Z,1.27
2022-11-21T11:22:07.783Z,1.30
2022-11-21T11:24:34.858Z,0.90
2022-11-21T11:27:02.590Z,1.17
2022-11-21T11:29:30.722Z,0.60
2022-11-21T11:31:58.144Z,1.15
2022-11-21T11:34:25.219Z,0.90
2022-11-21T11:36:52.296Z,1.35
2022-11-21T11:39:19.587Z,1.80
2022-11-21T11:42:05.581Z,2.60
2022-11-21T11:44:51.430Z,2.42
2022-11-21T11:47:30.725Z,1.67
2022-11-21T11:50:15.477Z,0.70
2022-11-21T11:52:42.818Z,5.30
2022-11-21T11:55:09.892Z,1.40
2022-11-21T11:57:36.985Z,1.00
2022-11-21T12:00:04.372Z,1.58
2022-11-21T12:02:31.576Z,0.73
2022-11-21T12:04:58.661Z,1.35
2022-11-21T12:10:12.841Z,1.92
2022-11-21T12:12:41.914Z,2.53
2022-11-21T12:15:27.950Z,1.45
2022-11-21T12:17:55.099Z,2.65
2022-11-21T12:20:22.371Z,1.73
2022-11-21T12:22:49.442Z,2.13
2022-11-21T12:25:16.524Z,6.97
2022-11-21T12:27:43.678Z,2.30
2022-11-21T12:30:10.837Z,4.88
2022-11-21T12:32:37.923Z,4.45
2022-11-21T12:35:05.010Z,4.72
2022-11-21T12:37:34.442Z,2.30
2022-11-21T12:40:01.973Z,1.77
2022-11-21T12:42:47.980Z,3.20
2022-11-21T12:45:17.946Z,3.70
2022-11-21T12:48:03.907Z,2.83
2022-11-21T12:50:49.753Z,2.28
2022-11-21T12:53:35.463Z,1.45
2022-11-21T12:56:02.562Z,2.83
2022-11-21T12:58:31.015Z,1.25
2022-11-21T13:00:59.162Z,1.98
2022-11-21T13:03:26.606Z,2.60
2022-11-21T13:05:53.722Z,1.92
2022-11-21T13:08:24.644Z,4.38
2022-11-21T13:10:52.193Z,1.73
2022-11-21T13:13:19.266Z,2.80
2022-11-21T13:15:46.340Z,4.65
2022-11-21T13:18:13.401Z,0.80
2022-11-21T13:20:40.513Z,1.40
2022-11-21T13:23:08.948Z,2.67
2022-11-21T13:25:36.132Z,2.10
2022-11-21T13:28:05.466Z,2.97
2022-11-21T13:30:32.528Z,2.63
2022-11-21T13:32:59.816Z,2.13
2022-11-21T13:35:26.899Z,1.67
2022-11-21T13:37:54.789Z,1.70
2022-11-21T13:40:21.855Z,1.92
2022-11-21T13:43:25.138Z,1.70
2022-11-21T13:45:45.507Z,1.80
2022-11-21T13:48:13.360Z,1.30
2022-11-21T13:50:40.442Z,3.30
2022-11-21T13:53:07.505Z,2.35
2022-11-21T13:55:34.713Z,2.15
2022-11-21T13:58:01.798Z,1.25
2022-11-21T14:00:28.901Z,1.98
2022-11-21T14:02:56.006Z,2.53
2022-11-21T14:05:23.138Z,1.20
2022-11-21T14:07:50.391Z,1.92
2022-11-21T14:10:17.551Z,1.40
2022-11-21T14:12:45.133Z,2.83
2022-11-21T14:15:12.258Z,1.38
2022-11-21T14:17:39.333Z,0.80
2022-11-21T14:20:06.454Z,4.10
2022-11-21T14:22:36.261Z,1.55
2022-11-21T14:25:05.870Z,0.75
2022-11-21T14:27:33.123Z,2.13
2022-11-21T14:30:00.178Z,1.38
2022-11-21T14:32:27.549Z,2.58
2022-11-21T14:34:54.638Z,0.93
2022-11-21T14:37:21.869Z,3.70
2022-11-21T14:39:56.519Z,1.02
2022-11-21T14:42:24.159Z,1.75
2022-11-21T14:44:52.043Z,1.88
2022-11-21T14:47:25.263Z,1.38
2022-11-21T14:49:53.559Z,1.63
2022-11-21T14:52:20.716Z,2.10
2022-11-21T14:55:15.030Z,1.83
2022-11-21T14:57:35.358Z,1.25
2022-11-21T15:00:02.497Z,1.08
2022-11-21T15:02:29.705Z,1.60
2022-11-21T15:04:56.951Z,1.10
2022-11-21T15:07:28.587Z,1.42
2022-11-21T15:12:45.991Z,1.38
2022-11-21T15:15:13.259Z,1.42
2022-11-21T15:18:03.438Z,1.48
2022-11-21T15:20:27.516Z,0.85
2022-11-21T15:22:54.622Z,2.53
2022-11-21T15:25:21.831Z,1.13
2022-11-21T15:27:48.924Z,1.20
2022-11-21T15:30:15.985Z,0.93
2022-11-21T15:32:43.080Z,1.48
2022-11-21T15:35:10.179Z,1.30
2022-11-21T15:37:37.251Z,1.75
2022-11-21T15:40:04.336Z,1.55
2022-11-21T15:42:31.406Z,0.85
2022-11-21T15:44:58.581Z,1.42
2022-11-21T15:47:25.675Z,0.93
2022-11-21T15:49:52.825Z,1.50
2022-11-21T15:52:19.906Z,1.38
2022-11-21T15:54:47.353Z,1.88
2022-11-21T15:57:16.755Z,2.03
2022-11-21T15:59:44.248Z,1.63
2022-11-21T16:02:11.321Z,1.35
2022-11-21T16:04:38.409Z,1.30
2022-11-21T16:07:05.548Z,1.00
2022-11-21T16:09:33.004Z,2.70
2022-11-21T16:12:00.083Z,1.58
2022-11-21T16:14:27.188Z,0.80
2022-11-21T16:16:54.326Z,1.92
2022-11-21T16:19:21.433Z,0.80
2022-11-21T16:21:48.529Z,1.00
2022-11-21T16:24:15.608Z,2.20
2022-11-21T16:26:42.686Z,2.58
2022-11-21T16:29:09.774Z,1.60
2022-11-21T16:31:36.853Z,1.10
2022-11-21T16:34:04.167Z,3.15
2022-11-21T16:36:31.264Z,1.05
2022-11-21T16:39:03.445Z,1.67
2022-11-21T16:41:34.497Z,1.50
2022-11-21T16:44:01.582Z,2.70
2022-11-21T16:46:28.808Z,1.33
2022-11-21T16:48:56.033Z,1.77
2022-11-21T16:51:23.386Z,1.48
2022-11-21T16:53:50.456Z,1.67
2022-11-21T16:56:17.526Z,2.72
2022-11-21T16:58:44.687Z,1.33
2022-11-21T17:01:12.403Z,2.28
2022-11-21T17:03:39.634Z,2.95
2022-11-21T17:06:06.741Z,2.03
2022-11-21T17:08:33.870Z,1.40
2022-11-21T17:11:01.654Z,1.63
2022-11-21T17:13:29.447Z,1.88
2022-11-21T17:15:56.540Z,1.88
2022-11-21T17:18:23.633Z,2.63
2022-11-21T17:20:50.722Z,1.80
2022-11-21T17:23:17.793Z,1.75
2022-11-21T17:25:44.863Z,2.28
2022-11-21T17:28:11.935Z,2.65
2022-11-21T17:30:44.027Z,2.80
2022-11-21T17:33:11.111Z,2.97
2022-11-21T17:35:38.186Z,1.75
2022-11-21T17:38:05.272Z,2.53
2022-11-21T17:40:32.338Z,3.00
2022-11-21T17:42:59.403Z,2.38
2022-11-21T17:45:26.477Z,2.72
2022-11-21T17:47:53.572Z,3.60
2022-11-21T17:50:21.373Z,3.65
2022-11-21T17:52:50.352Z,2.15
2022-11-21T17:55:17.421Z,3.25
2022-11-21T17:57:44.493Z,3.25
2022-11-21T18:00:11.567Z,3.45
2022-11-21T18:02:38.759Z,1.83
2022-11-21T18:05:05.908Z,3.83
2022-11-21T18:07:33.420Z,3.58
2022-11-21T18:10:20.410Z,2.92
2022-11-21T18:12:47.650Z,3.25
2022-11-21T18:15:14.723Z,3.42
2022-11-21T18:17:41.792Z,3.15
2022-11-21T18:20:08.950Z,3.45
2022-11-21T18:22:36.028Z,2.97
2022-11-21T18:25:03.165Z,2.85
2022-11-21T18:27:30.237Z,2.30
2022-11-21T18:29:57.309Z,4.93
2022-11-21T18:32:24.456Z,4.13
2022-11-21T18:34:51.569Z,3.67
2022-11-21T18:37:18.644Z,2.55
2022-11-21T18:39:45.736Z,3.17
2022-11-21T18:42:12.813Z,3.47
2022-11-21T18:44:39.886Z,3.40
2022-11-21T18:47:19.660Z,4.88
2022-11-21T18:49:48.049Z,3.92
2022-11-21T18:52:15.220Z,4.70
2022-11-21T18:54:42.301Z,3.35
2022-11-21T18:57:09.445Z,3.70
2022-11-21T18:59:36.517Z,4.22
2022-11-21T19:02:03.690Z,4.55
2022-11-21T19:04:31.019Z,4.28
2022-11-21T19:06:58.248Z,4.03
2022-11-21T19:09:32.273Z,3.65
2022-11-21T19:12:00.098Z,4.32
2022-11-21T19:14:27.585Z,4.20
2022-11-21T19:16:54.978Z,4.68
2022-11-21T19:19:37.468Z,3.78
2022-11-21T19:22:06.232Z,4.20
2022-11-21T19:24:33.589Z,3.88
2022-11-21T19:27:00.759Z,4.85
2022-11-21T19:29:28.328Z,4.40
2022-11-21T19:31:56.039Z,4.88
2022-11-21T19:34:23.173Z,4.00
2022-11-21T19:36:50.353Z,4.63
2022-11-21T19:39:18.096Z,4.80
2022-11-21T19:41:45.359Z,3.65
2022-11-21T19:44:12.488Z,4.68
2022-11-21T19:46:39.828Z,5.75
2022-11-21T19:49:06.974Z,3.42
2022-11-21T19:51:34.200Z,4.85
2022-11-21T19:54:01.357Z,5.43
2022-11-21T19:56:28.513Z,5.50
2022-11-21T19:58:55.717Z,4.05
2022-11-21T20:01:22.867Z,5.05
2022-11-21T20:03:50.172Z,6.85
2022-11-21T20:06:17.498Z,9.30
2022-11-21T20:08:44.776Z,6.32
2022-11-21T20:11:12.262Z,6.55
2022-11-21T20:13:39.461Z,7.55
2022-11-21T20:16:07.455Z,5.40
2022-11-21T20:18:34.576Z,7.10
2022-11-21T20:21:01.680Z,5.40
2022-11-21T20:23:28.845Z,5.90
2022-11-21T20:25:56.043Z,7.72
2022-11-21T20:28:23.278Z,10.13
2022-11-21T20:30:50.414Z,6.80
2022-11-21T20:33:17.615Z,7.05
2022-11-21T20:35:44.717Z,7.90
2022-11-21T20:38:11.859Z,6.38
2022-11-21T20:40:38.973Z,4.50
2022-11-21T20:43:06.073Z,6.30
2022-11-21T20:46:07.950Z,6.03
2022-11-21T20:48:20.720Z,5.85
2022-11-21T20:53:51.597Z,4.88
2022-11-21T20:56:20.417Z,6.90
2022-11-21T20:58:47.721Z,5.57
2022-11-21T21:01:14.886Z,5.93
2022-11-21T21:03:42.005Z,6.38
2022-11-21T21:06:09.121Z,6.07
2022-11-21T21:08:36.192Z,4.60
2022-11-21T21:11:06.817Z,5.10
2022-11-21T21:13:33.974Z,7.07
2022-11-21T21:16:01.070Z,5.15
2022-11-21T21:18:28.131Z,5.05
2022-11-21T21:21:16.093Z,5.93
2022-11-21T21:23:42.950Z,9.07
2022-11-21T21:26:10.099Z,8.13
2022-11-21T21:28:37.178Z,9.13
2022-11-21T21:31:04.243Z,8.95
2022-11-21T21:33:31.303Z,12.65
2022-11-21T21:35:58.362Z,12.77
2022-11-21T21:38:25.425Z,11.90
2022-11-21T21:40:52.515Z,11.02
2022-11-21T21:43:19.578Z,12.20
2022-11-21T21:45:46.635Z,15.38
2022-11-21T21:48:13.724Z,16.13
2022-11-21T21:50:40.788Z,15.82
2022-11-21T21:53:07.848Z,17.30
2022-11-21T21:55:34.938Z,15.25
2022-11-21T21:58:02.005Z,19.40
2022-11-21T22:00:29.090Z,19.38
2022-11-21T22:02:56.197Z,21.02
2022-11-21T22:05:23.276Z,19.88
2022-11-21T22:07:50.403Z,20.05
2022-11-21T22:10:17.498Z,22.77
2022-11-21T22:12:44.570Z,21.40
2022-11-21T22:15:11.622Z,22.23
2022-11-21T22:17:38.701Z,25.75
2022-11-21T22:20:05.778Z,23.92
2022-11-21T22:22:32.838Z,24.88
2022-11-21T22:24:59.919Z,25.55
2022-11-21T22:27:26.987Z,23.10
2022-11-21T22:29:54.058Z,26.55
2022-11-21T22:32:21.126Z,23.35
2022-11-21T22:34:48.258Z,26.70
2022-11-21T22:37:15.323Z,23.70
2022-11-21T22:39:42.390Z,26.65
2022-11-21T22:42:10.015Z,27.52
2022-11-21T22:44:37.087Z,26.85
2022-11-21T22:47:04.147Z,27.52
2022-11-21T22:49:31.225Z,24.35
2022-11-21T22:51:58.328Z,30.17
2022-11-21T22:54:25.434Z,24.67
2022-11-21T22:56:52.507Z,24.65
2022-11-21T22:59:19.593Z,25.30
2022-11-21T23:01:46.701Z,25.05
2022-11-21T23:04:17.633Z,25.17
2022-11-21T23:06:45.185Z,25.67
2022-11-21T23:09:12.262Z,27.52
2022-11-21T23:11:40.792Z,25.65
2022-11-21T23:14:08.310Z,27.60
2022-11-21T23:16:35.399Z,27.40
2022-11-21T23:19:02.502Z,26.83
2022-11-21T23:21:30.344Z,26.05
2022-11-21T23:23:57.421Z,25.00
2022-11-21T23:26:24.473Z,25.90
2022-11-21T23:28:51.541Z,25.42
2022-11-21T23:31:18.773Z,24.20
2022-11-21T23:33:46.055Z,23.35
2022-11-21T23:36:13.121Z,25.80
2022-11-21T23:38:40.220Z,23.60
2022-11-21T23:41:07.296Z,24.35
2022-11-21T23:43:34.422Z,22.92
2022-11-21T23:46:01.501Z,24.92
2022-11-21T23:48:28.646Z,25.65
2022-11-21T23:50:55.731Z,25.92
2022-11-21T23:53:22.861Z,23.88
2022-11-21T23:55:49.913Z,23.80
2022-11-21T23:58:17.129Z,22.27
